createdAt,value
2022-11-24T00:02:24.585Z,7.85
2022-11-24T00:04:51.311Z,7.88
2022-11-24T00:07:17.804Z,7.89
2022-11-24T00:09:44.391Z,7.91
2022-11-24T00:12:10.864Z,7.93
2022-11-24T00:14:37.351Z,7.96
2022-11-24T00:17:03.903Z,8.04
2022-11-24T00:19:30.488Z,8.10
2022-11-24T00:21:57.009Z,8.11
2022-11-24T00:24:23.493Z,8.11
2022-11-24T00:26:50.098Z,8.05
2022-11-24T00:29:16.652Z,8.04
2022-11-24T00:31:43.169Z,8.07
2022-11-24T00:34:14.270Z,8.02
2022-11-24T00:36:41.444Z,8.02
2022-11-24T00:39:11.725Z,7.99
2022-11-24T00:41:38.629Z,7.96
2022-11-24T00:44:05.544Z,7.97
2022-11-24T00:46:32.306Z,8.04
2022-11-24T00:49:00.321Z,8.05
2022-11-24T00:51:28.041Z,8.08
2022-11-24T00:53:55.476Z,8.09
2022-11-24T00:56:22.400Z,8.10
2022-11-24T00:58:48.890Z,8.10
2022-11-24T01:01:18.204Z,8.10
2022-11-24T01:03:46.709Z,8.07
2022-11-24T01:06:16.421Z,8.09
2022-11-24T01:08:43.347Z,8.09
2022-11-24T01:11:24.792Z,8.12
2022-11-24T01:13:59.533Z,8.16
2022-11-24T01:16:31.896Z,8.15
2022-11-24T01:18:59.763Z,8.14
2022-11-24T01:21:26.381Z,8.18
2022-11-24T01:23:53.187Z,8.15
2022-11-24T01:26:21.514Z,8.15
2022-11-24T01:28:55.620Z,8.14
2022-11-24T01:31:22.661Z,8.18
2022-11-24T01:33:49.195Z,8.12
2022-11-24T01:36:15.714Z,8.11
2022-11-24T01:38:42.206Z,8.08
2022-11-24T01:41:15.909Z,8.07
2022-11-24T01:43:43.595Z,8.03
2022-11-24T01:46:26.230Z,8.06
2022-11-24T01:49:12.536Z,8.01
2022-11-24T01:51:50.575Z,8.05
2022-11-24T01:54:22.797Z,8.00
2022-11-24T01:56:52.164Z,7.98
2022-11-24T01:59:19.914Z,7.97
2022-11-24T02:01:47.185Z,7.95
2022-11-24T02:04:16.324Z,7.93
2022-11-24T02:06:43.969Z,7.94
2022-11-24T02:09:34.250Z,7.96
2022-11-24T02:12:01.553Z,7.97
2022-11-24T02:14:28.472Z,7.95
2022-11-24T02:16:55.056Z,7.97
2022-11-24T02:19:39.480Z,8.05
2022-11-24T02:22:16.377Z,8.15
2022-11-24T02:24:52.663Z,8.23
2022-11-24T02:27:19.509Z,8.29
2022-11-24T02:29:46.211Z,8.55
2022-11-24T02:32:12.764Z,8.71
2022-11-24T02:34:39.311Z,8.81
2022-11-24T02:37:05.827Z,8.91
2022-11-24T02:39:34.047Z,9.07
2022-11-24T02:42:05.838Z,8.89
2022-11-24T02:44:42.132Z,8.58
2022-11-24T02:47:10.928Z,8.37
2022-11-24T02:49:37.805Z,8.19
2022-11-24T02:52:05.338Z,8.06
2022-11-24T02:54:32.594Z,8.00
2022-11-24T02:56:59.419Z,7.96
2022-11-24T02:59:26.166Z,7.92
2022-11-24T03:01:52.836Z,7.87
2022-11-24T03:04:19.319Z,7.82
2022-11-24T03:06:45.818Z,7.79
2022-11-24T03:09:12.330Z,7.74
2022-11-24T03:11:39.283Z,7.74
2022-11-24T03:14:06.587Z,7.74
2022-11-24T03:16:33.410Z,7.73
2022-11-24T03:19:00.240Z,7.74
2022-11-24T03:21:26.746Z,7.80
2022-11-24T03:23:53.341Z,7.88
2022-11-24T03:26:21.919Z,7.91
2022-11-24T03:28:48.414Z,7.89
2022-11-24T03:31:15.141Z,7.88
2022-11-24T03:33:41.643Z,7.91
2022-11-24T03:36:08.717Z,7.95
2022-11-24T03:38:35.328Z,7.95
2022-11-24T03:41:01.866Z,7.84
2022-11-24T03:43:28.370Z,7.75
2022-11-24T03:45:54.848Z,7.63
2022-11-24T03:48:21.623Z,7.55
2022-11-24T03:50:59.220Z,7.46
2022-11-24T03:53:28.238Z,7.31
2022-11-24T03:55:54.886Z,7.21
2022-11-24T03:58:21.488Z,7.15
2022-11-24T04:00:52.748Z,7.04
2022-11-24T04:03:19.811Z,6.95
2022-11-24T04:05:47.028Z,6.77
2022-11-24T04:08:14.088Z,6.74
2022-11-24T04:10:40.633Z,6.69
2022-11-24T04:13:17.972Z,6.68
2022-11-24T04:15:44.718Z,6.67
2022-11-24T04:18:12.309Z,6.66
2022-11-24T04:20:39.283Z,6.56
2022-11-24T04:23:05.982Z,6.50
2022-11-24T04:25:32.655Z,6.43
2022-11-24T04:27:59.287Z,6.39
2022-11-24T04:30:27.333Z,6.36
2022-11-24T04:32:53.939Z,6.36
2022-11-24T04:35:21.107Z,6.36
2022-11-24T04:37:47.627Z,6.33
2022-11-24T04:40:14.566Z,6.31
2022-11-24T04:42:41.206Z,6.33
2022-11-24T04:45:08.384Z,6.33
2022-11-24T04:47:35.009Z,6.33
2022-11-24T04:50:01.706Z,6.31
2022-11-24T04:52:29.961Z,6.34
2022-11-24T04:54:56.442Z,6.37
2022-11-24T04:57:25.313Z,6.43
2022-11-24T04:59:52.924Z,6.46
2022-11-24T05:02:20.316Z,6.51
2022-11-24T05:04:46.913Z,6.58
2022-11-24T05:07:18.291Z,6.67
2022-11-24T05:10:07.360Z,6.72
2022-11-24T05:12:33.856Z,6.76
2022-11-24T05:15:01.701Z,6.79
2022-11-24T05:17:30.727Z,6.82
2022-11-24T05:19:57.796Z,6.83
2022-11-24T05:22:24.464Z,6.82
2022-11-24T05:24:51.274Z,6.83
2022-11-24T05:27:17.770Z,6.88
2022-11-24T05:29:44.555Z,6.87
2022-11-24T05:32:11.209Z,6.82
2022-11-24T05:34:37.776Z,6.86
2022-11-24T05:37:04.354Z,6.88
2022-11-24T05:39:35.738Z,6.85
2022-11-24T05:42:30.408Z,6.81
2022-11-24T05:44:57.544Z,6.84
2022-11-24T05:47:24.344Z,6.83
2022-11-24T05:49:50.935Z,6.80
2022-11-24T05:52:17.526Z,6.80
2022-11-24T05:54:44.029Z,6.79
2022-11-24T05:57:10.573Z,6.77
2022-11-24T05:59:37.069Z,6.73
2022-11-24T06:02:03.733Z,6.75
2022-11-24T06:04:30.288Z,6.77
2022-11-24T06:06:56.831Z,6.83
2022-11-24T06:09:23.313Z,6.85
2022-11-24T06:11:49.942Z,6.91
2022-11-24T06:14:16.545Z,6.91
2022-11-24T06:16:43.125Z,6.95
2022-11-24T06:19:10.872Z,6.99
2022-11-24T06:21:37.474Z,6.98
2022-11-24T06:24:04.599Z,7.04
2022-11-24T06:26:31.091Z,7.06
2022-11-24T06:28:57.656Z,7.04
2022-11-24T06:31:24.235Z,7.08
2022-11-24T06:33:50.866Z,7.10
2022-11-24T06:36:17.490Z,7.14
2022-11-24T06:38:43.970Z,7.16
2022-11-24T06:41:13.962Z,7.17
2022-11-24T06:43:40.642Z,7.19
2022-11-24T06:46:07.453Z,7.22
2022-11-24T06:48:34.276Z,7.27
2022-11-24T06:51:02.526Z,7.25
2022-11-24T06:53:33.293Z,7.27
2022-11-24T06:56:01.055Z,7.28
2022-11-24T06:58:27.783Z,7.23
2022-11-24T07:00:54.512Z,7.22
2022-11-24T07:03:21.664Z,7.22
2022-11-24T07:05:48.356Z,7.29
2022-11-24T07:08:17.926Z,7.28
2022-11-24T07:10:44.815Z,7.31
2022-11-24T07:13:11.325Z,7.32
2022-11-24T07:15:37.857Z,7.33
2022-11-24T07:18:04.521Z,7.33
2022-11-24T07:20:31.020Z,7.30
2022-11-24T07:22:58.005Z,7.29
2022-11-24T07:25:25.337Z,7.27
2022-11-24T07:27:59.311Z,7.27
2022-11-24T07:30:27.277Z,7.25
2022-11-24T07:33:03.932Z,7.31
2022-11-24T07:35:30.840Z,7.30
2022-11-24T07:37:58.493Z,7.35
2022-11-24T07:40:26.959Z,7.41
2022-11-24T07:42:54.060Z,7.46
2022-11-24T07:45:20.582Z,7.53
2022-11-24T07:47:47.123Z,7.62
2022-11-24T07:50:13.749Z,7.60
2022-11-24T07:52:40.354Z,7.66
2022-11-24T07:55:07.936Z,7.70
2022-11-24T07:57:34.725Z,7.81
2022-11-24T08:00:01.350Z,7.97
2022-11-24T08:02:27.880Z,8.21
2022-11-24T08:04:54.432Z,8.44
2022-11-24T08:07:20.922Z,8.44
2022-11-24T08:09:47.472Z,8.54
2022-11-24T08:12:14.068Z,8.59
2022-11-24T08:14:40.535Z,8.78
2022-11-24T08:17:07.131Z,8.96
2022-11-24T08:19:34.816Z,9.24
2022-11-24T08:22:01.326Z,9.72
2022-11-24T08:24:27.805Z,9.44
2022-11-24T08:26:54.584Z,9.47
2022-11-24T08:29:21.124Z,9.52
2022-11-24T08:31:47.633Z,9.16
2022-11-24T08:34:14.116Z,9.14
2022-11-24T08:36:40.615Z,9.19
2022-11-24T08:39:07.131Z,9.54
2022-11-24T08:41:33.736Z,9.63
2022-11-24T08:44:00.269Z,10.01
2022-11-24T08:46:26.783Z,10.06
2022-11-24T08:48:54.546Z,10.25
2022-11-24T08:51:23.795Z,10.24
2022-11-24T08:53:54.209Z,10.28
2022-11-24T08:56:20.705Z,10.30
2022-11-24T08:58:47.208Z,10.55
2022-11-24T09:01:15.372Z,10.76
2022-11-24T09:03:48.599Z,10.93
2022-11-24T09:06:18.310Z,10.61
2022-11-24T09:08:44.833Z,10.59
2022-11-24T09:11:13.376Z,10.43
2022-11-24T09:13:40.417Z,10.42
2022-11-24T09:16:09.714Z,10.54
2022-11-24T09:18:36.497Z,10.52
2022-11-24T09:21:11.377Z,10.33
2022-11-24T09:23:38.258Z,10.29
2022-11-24T09:26:11.019Z,10.33
2022-11-24T09:28:37.875Z,10.76
2022-11-24T09:31:06.023Z,10.58
2022-11-24T09:33:33.237Z,11.04
2022-11-24T09:36:00.119Z,10.43
2022-11-24T09:38:27.315Z,10.71
2022-11-24T09:40:55.554Z,10.82
2022-11-24T09:43:36.469Z,10.63
2022-11-24T09:46:10.672Z,10.46
2022-11-24T09:48:40.923Z,10.11
2022-11-24T09:51:12.464Z,10.02
2022-11-24T09:54:08.364Z,9.93
2022-11-24T09:56:36.983Z,10.22
2022-11-24T09:59:16.308Z,10.94
2022-11-24T10:01:45.021Z,10.63
2022-11-24T10:04:29.898Z,10.91
2022-11-24T10:07:11.446Z,10.91
2022-11-24T10:09:56.482Z,11.48
2022-11-24T10:12:23.006Z,11.90
2022-11-24T10:15:16.586Z,11.38
2022-11-24T10:17:43.602Z,11.47
2022-11-24T10:20:22.574Z,11.19
2022-11-24T10:23:04.247Z,11.31
2022-11-24T10:25:40.322Z,11.26
2022-11-24T10:28:11.982Z,11.71
2022-11-24T10:30:38.632Z,11.37
2022-11-24T10:33:16.462Z,11.31
2022-11-24T10:35:48.930Z,11.70
2022-11-24T10:38:21.634Z,11.63
2022-11-24T10:40:59.609Z,11.41
2022-11-24T10:43:28.169Z,11.53
2022-11-24T10:45:58.767Z,11.56
2022-11-24T10:48:26.683Z,11.69
2022-11-24T10:50:54.936Z,11.46
2022-11-24T10:53:27.989Z,11.55
2022-11-24T10:55:54.456Z,11.21
2022-11-24T10:58:37.606Z,11.44
2022-11-24T11:01:28.680Z,11.22
2022-11-24T11:03:57.870Z,11.46
2022-11-24T11:06:27.083Z,11.20
2022-11-24T11:09:13.506Z,11.20
2022-11-24T11:11:41.579Z,10.92
2022-11-24T11:14:10.604Z,10.92
2022-11-24T11:16:38.764Z,10.91
2022-11-24T11:19:47.806Z,10.80
2022-11-24T11:22:16.854Z,10.96
2022-11-24T11:24:45.251Z,11.33
2022-11-24T11:27:18.913Z,11.44
2022-11-24T11:35:19.269Z,11.10
2022-11-24T11:37:47.253Z,11.46
2022-11-24T11:40:17.963Z,11.49
2022-11-24T11:43:02.549Z,10.94
2022-11-24T11:45:43.366Z,11.23
2022-11-24T11:48:27.657Z,11.16
2022-11-24T11:51:22.361Z,11.24
2022-11-24T11:54:10.407Z,11.19
2022-11-24T11:56:46.083Z,11.39
2022-11-24T11:59:30.977Z,11.17
2022-11-24T12:02:32.765Z,11.06
2022-11-24T12:05:20.472Z,11.36
2022-11-24T12:08:11.655Z,11.23
2022-11-24T12:11:09.252Z,11.45
2022-11-24T12:13:54.043Z,11.51
2022-11-24T12:16:48.043Z,11.38
2022-11-24T12:19:36.757Z,11.61
2022-11-24T12:22:18.773Z,11.53
2022-11-24T12:25:14.411Z,11.44
2022-11-24T12:27:50.626Z,11.55
2022-11-24T12:30:18.444Z,11.44
2022-11-24T12:32:47.931Z,11.70
2022-11-24T12:35:14.652Z,11.36
2022-11-24T12:38:11.419Z,11.43
2022-11-24T12:40:46.446Z,11.42
2022-11-24T12:43:20.082Z,11.51
2022-11-24T12:45:55.867Z,11.38
2022-11-24T12:48:45.750Z,11.67
2022-11-24T12:51:20.990Z,11.64
2022-11-24T12:53:48.069Z,11.77
2022-11-24T12:56:16.372Z,11.89
2022-11-24T12:58:51.902Z,12.20
2022-11-24T13:01:39.311Z,11.90
2022-11-24T13:04:29.501Z,11.66
2022-11-24T13:07:21.471Z,11.71
2022-11-24T13:10:40.436Z,11.39
2022-11-24T13:13:12.747Z,11.82
2022-11-24T13:16:28.561Z,11.77
2022-11-24T13:18:47.382Z,11.46
2022-11-24T13:21:42.893Z,11.66
2022-11-24T13:24:19.498Z,11.56
2022-11-24T13:26:52.418Z,11.82
2022-11-24T13:29:28.194Z,11.74
2022-11-24T13:32:04.551Z,11.74
2022-11-24T13:34:40.391Z,11.59
2022-11-24T13:37:31.167Z,11.60
2022-11-24T13:40:03.782Z,11.72
2022-11-24T13:42:42.403Z,11.76
2022-11-24T13:45:39.758Z,11.48
2022-11-24T13:48:18.889Z,11.66
2022-11-24T13:50:51.979Z,11.74
2022-11-24T13:53:40.450Z,12.02
2022-11-24T13:56:22.688Z,12.07
2022-11-24T13:58:58.035Z,12.21
2022-11-24T14:01:28.427Z,12.09
2022-11-24T14:04:32.319Z,12.26
2022-11-24T14:07:07.815Z,11.97
2022-11-24T14:09:44.251Z,11.98
2022-11-24T14:12:17.747Z,11.61
2022-11-24T14:14:46.055Z,11.67
2022-11-24T14:17:22.689Z,11.72
2022-11-24T14:19:51.381Z,11.36
2022-11-24T14:22:19.641Z,11.15
2022-11-24T14:24:52.275Z,10.94
2022-11-24T14:27:30.816Z,10.95
2022-11-24T14:30:00.096Z,10.88
2022-11-24T14:32:26.984Z,10.76
2022-11-24T14:34:54.442Z,10.67
2022-11-24T14:37:21.357Z,10.73
2022-11-24T14:39:47.902Z,10.74
2022-11-24T14:42:27.804Z,10.74
2022-11-24T14:44:54.308Z,10.82
2022-11-24T14:47:32.621Z,10.90
2022-11-24T14:50:29.076Z,10.94
2022-11-24T14:52:59.043Z,10.88
2022-11-24T14:55:30.410Z,10.81
2022-11-24T14:57:57.865Z,10.69
2022-11-24T15:00:24.298Z,10.51
2022-11-24T15:03:16.072Z,10.35
2022-11-24T15:05:56.287Z,10.24
2022-11-24T15:08:25.025Z,10.19
2022-11-24T15:10:58.086Z,10.15
2022-11-24T15:13:25.147Z,10.08
2022-11-24T15:16:03.611Z,9.96
2022-11-24T15:18:41.090Z,9.93
2022-11-24T15:21:07.876Z,9.92
2022-11-24T15:23:35.192Z,9.97
2022-11-24T15:26:01.649Z,9.92
2022-11-24T15:28:29.675Z,9.93
2022-11-24T15:31:02.806Z,9.95
2022-11-24T15:33:29.887Z,9.98
2022-11-24T15:35:56.880Z,9.91
2022-11-24T15:38:23.716Z,9.82
2022-11-24T15:40:55.060Z,9.83
2022-11-24T15:43:31.028Z,9.83
2022-11-24T15:45:58.677Z,9.83
2022-11-24T15:48:25.581Z,9.79
2022-11-24T15:50:53.123Z,9.72
2022-11-24T15:53:25.735Z,9.72
2022-11-24T15:55:52.812Z,9.71
2022-11-24T15:58:19.648Z,9.73
2022-11-24T16:00:46.400Z,9.64
2022-11-24T16:03:44.941Z,9.62
2022-11-24T16:05:59.591Z,9.62
2022-11-24T16:08:26.097Z,9.59
2022-11-24T16:10:52.589Z,9.65
2022-11-24T16:13:19.190Z,9.59
2022-11-24T16:15:45.975Z,9.58
2022-11-24T16:18:13.936Z,9.59
2022-11-24T16:20:40.530Z,9.67
2022-11-24T16:23:07.069Z,9.62
2022-11-24T16:25:33.653Z,9.64
2022-11-24T16:28:00.120Z,9.64
2022-11-24T16:30:26.633Z,9.59
2022-11-24T16:32:53.260Z,9.57
2022-11-24T16:35:20.098Z,9.53
2022-11-24T16:37:46.690Z,9.59
2022-11-24T16:40:13.375Z,9.56
2022-11-24T16:42:39.866Z,9.52
2022-11-24T16:45:06.955Z,9.53
2022-11-24T16:47:39.671Z,9.49
2022-11-24T16:50:07.762Z,9.54
2022-11-24T16:52:34.246Z,9.45
2022-11-24T16:55:01.661Z,9.43
2022-11-24T16:57:28.206Z,9.42
2022-11-24T16:59:54.688Z,9.41
2022-11-24T17:02:21.270Z,9.41
2022-11-24T17:04:49.755Z,9.35
2022-11-24T17:07:16.350Z,9.38
2022-11-24T17:09:42.878Z,9.29
2022-11-24T17:12:09.364Z,9.36
2022-11-24T17:14:36.955Z,9.36
2022-11-24T17:17:06.644Z,9.35
2022-11-24T17:19:33.200Z,9.29
2022-11-24T17:21:59.903Z,9.31
2022-11-24T17:24:26.547Z,9.25
2022-11-24T17:26:53.290Z,9.27
2022-11-24T17:29:19.912Z,9.27
2022-11-24T17:31:46.669Z,9.37
2022-11-24T17:34:13.314Z,9.35
2022-11-24T17:36:41.417Z,9.34
2022-11-24T17:39:08.039Z,9.34
2022-11-24T17:41:34.835Z,9.36
2022-11-24T17:44:01.479Z,9.35
2022-11-24T17:46:29.177Z,9.32
2022-11-24T17:48:56.050Z,9.26
2022-11-24T17:51:24.177Z,9.29
2022-11-24T17:53:52.254Z,9.27
2022-11-24T17:56:22.914Z,9.24
2022-11-24T17:58:52.234Z,9.27
2022-11-24T18:01:19.307Z,9.23
2022-11-24T18:03:48.988Z,9.21
2022-11-24T18:06:19.799Z,9.20
2022-11-24T18:08:47.049Z,9.22
2022-11-24T18:11:32.040Z,9.20
2022-11-24T18:14:02.920Z,9.25
2022-11-24T18:16:31.590Z,9.28
2022-11-24T18:19:08.285Z,9.27
2022-11-24T18:21:35.140Z,9.22
2022-11-24T18:24:01.787Z,9.20
2022-11-24T18:26:28.672Z,9.25
2022-11-24T18:28:55.251Z,9.17
2022-11-24T18:31:22.491Z,9.14
2022-11-24T18:33:49.112Z,9.12
2022-11-24T18:36:18.947Z,9.14
2022-11-24T18:38:46.015Z,9.06
2022-11-24T18:41:14.003Z,9.05
2022-11-24T18:43:40.847Z,9.06
2022-11-24T18:46:15.320Z,9.08
2022-11-24T18:48:42.644Z,9.04
2022-11-24T18:51:14.294Z,9.05
2022-11-24T18:53:42.437Z,8.99
2022-11-24T18:56:15.744Z,8.98
2022-11-24T18:58:42.580Z,8.95
2022-11-24T19:01:17.359Z,9.01
2022-11-24T19:03:49.508Z,8.96
2022-11-24T19:06:33.534Z,8.96
2022-11-24T19:09:02.640Z,8.90
2022-11-24T19:11:37.506Z,8.90
2022-11-24T19:14:05.343Z,8.89
2022-11-24T19:16:32.063Z,8.91
2022-11-24T19:19:00.169Z,8.87
2022-11-24T19:21:27.842Z,8.95
2022-11-24T19:23:55.776Z,8.93
2022-11-24T19:26:24.321Z,8.90
2022-11-24T19:28:50.864Z,8.87
2022-11-24T19:31:20.190Z,8.93
2022-11-24T19:33:47.049Z,8.95
2022-11-24T19:36:19.120Z,8.89
2022-11-24T19:38:56.162Z,8.91
2022-11-24T19:41:25.193Z,8.90
2022-11-24T19:43:54.784Z,8.88
2022-11-24T19:46:22.951Z,8.90
2022-11-24T19:48:50.860Z,8.90
2022-11-24T19:51:22.446Z,8.99
2022-11-24T19:53:48.949Z,8.97
2022-11-24T19:56:18.379Z,9.05
2022-11-24T19:58:45.581Z,9.03
2022-11-24T20:01:14.423Z,9.05
2022-11-24T20:03:41.722Z,9.06
2022-11-24T20:06:10.120Z,9.08
2022-11-24T20:08:37.510Z,9.14
2022-11-24T20:11:12.343Z,9.11
2022-11-24T20:13:40.322Z,9.14
2022-11-24T20:16:12.702Z,9.11
2022-11-24T20:18:42.391Z,9.22
2022-11-24T20:21:10.504Z,9.19
2022-11-24T20:23:37.006Z,9.19
2022-11-24T20:26:08.946Z,9.18
2022-11-24T20:28:35.486Z,9.20
2022-11-24T20:31:07.540Z,9.27
2022-11-24T20:33:35.517Z,9.21
2022-11-24T20:36:10.672Z,9.33
2022-11-24T20:38:38.322Z,9.31
2022-11-24T20:41:09.603Z,9.41
2022-11-24T20:43:37.124Z,9.43
2022-11-24T20:46:12.148Z,9.44
2022-11-24T20:48:38.922Z,9.50
2022-11-24T20:51:10.496Z,9.52
2022-11-24T20:53:37.358Z,9.53
2022-11-24T20:56:06.496Z,9.52
2022-11-24T20:58:34.628Z,9.63
2022-11-24T21:01:11.540Z,9.67
2022-11-24T21:03:43.088Z,9.71
2022-11-24T21:06:11.201Z,9.73
2022-11-24T21:08:39.038Z,9.87
2022-11-24T21:11:06.948Z,9.90
2022-11-24T21:13:34.734Z,9.94
2022-11-24T21:16:06.613Z,9.94
2022-11-24T21:18:33.831Z,9.98
2022-11-24T21:21:00.365Z,9.99
2022-11-24T21:23:26.883Z,10.04
2022-11-24T21:25:53.360Z,10.12
2022-11-24T21:28:19.846Z,10.11
2022-11-24T21:30:46.321Z,10.11
2022-11-24T21:33:12.864Z,10.13
2022-11-24T21:35:39.502Z,10.16
2022-11-24T21:38:06.139Z,10.17
2022-11-24T21:40:32.634Z,10.14
2022-11-24T21:42:59.721Z,10.13
2022-11-24T21:45:29.138Z,10.20
2022-11-24T21:48:02.119Z,10.24
2022-11-24T21:50:28.726Z,10.24
2022-11-24T21:52:59.269Z,10.24
2022-11-24T21:55:28.650Z,10.26
2022-11-24T21:57:55.128Z,10.30
2022-11-24T22:00:21.716Z,10.25
2022-11-24T22:02:48.351Z,10.25
2022-11-24T22:05:14.879Z,10.28
2022-11-24T22:07:41.548Z,10.21
2022-11-24T22:10:08.766Z,10.22
2022-11-24T22:12:35.266Z,10.18
2022-11-24T22:15:01.787Z,10.13
2022-11-24T22:17:30.828Z,10.16
2022-11-24T22:19:57.326Z,10.13
2022-11-24T22:22:23.807Z,10.08
2022-11-24T22:24:50.341Z,10.04
2022-11-24T22:27:16.848Z,9.94
2022-11-24T22:29:43.312Z,9.77
2022-11-24T22:32:09.771Z,9.65
2022-11-24T22:34:36.305Z,9.56
2022-11-24T22:37:03.000Z,9.41
2022-11-24T22:39:29.506Z,9.32
2022-11-24T22:41:55.994Z,9.29
2022-11-24T22:44:22.482Z,9.21
2022-11-24T22:46:48.970Z,9.15
2022-11-24T22:49:15.399Z,9.11
2022-11-24T22:51:41.891Z,9.12
2022-11-24T22:54:11.751Z,9.08
2022-11-24T22:56:38.427Z,9.08
2022-11-24T22:59:05.077Z,9.07
2022-11-24T23:01:33.627Z,9.06
2022-11-24T23:04:00.320Z,9.07
2022-11-24T23:06:28.663Z,9.06
2022-11-24T23:08:55.686Z,9.03
2022-11-24T23:11:31.676Z,8.95
2022-11-24T23:14:01.946Z,8.93
2022-11-24T23:16:29.237Z,8.88
2022-11-24T23:18:56.133Z,8.83
2022-11-24T23:21:27.567Z,8.81
2022-11-24T23:23:54.397Z,8.79
2022-11-24T23:26:23.569Z,8.75
2022-11-24T23:28:50.690Z,8.74
2022-11-24T23:31:19.577Z,8.73
2022-11-24T23:33:46.501Z,8.71
2022-11-24T23:36:14.255Z,8.72
2022-11-24T23:38:41.169Z,8.72
2022-11-24T23:41:10.877Z,8.69
2022-11-24T23:43:39.206Z,8.71
2022-11-24T23:46:11.612Z,8.72
2022-11-24T23:48:38.878Z,8.73
2022-11-24T23:51:12.375Z,8.72
2022-11-24T23:53:39.382Z,8.71
2022-11-24T23:56:06.212Z,8.71
2022-11-24T23:58:33.035Z,8.76
